Time;durP1;ratioP1;P1;durP2;ratioP2;P2;SDS_P1;SDS_P2;PMS_P1;PMS_P2;Temp;Humidity;BMP_temperature;BMP_pressure;BME280_temperature;BME280_humidity;BME280_pressure;Samples;Min_cycle;Max_cycle;Signal;HPM_P1;HPM_P2
2024/03/16 00:00:50;;;;;;;12.18;7.10;;;;;;;;;;5047173;28;20025;-51
2024/03/16 00:03:18;;;;;;;11.88;6.97;;;;;;;;;;5063960;28;20082;-50
2024/03/16 00:05:44;;;;;;;11.45;6.75;;;;;;;;;;5064650;28;20037;-53
2024/03/16 00:08:10;;;;;;;11.60;6.80;;;;;;;;;;5064636;28;20031;-52
2024/03/16 00:10:36;;;;;;;11.80;6.90;;;;;;;;;;5046855;28;20536;-52
2024/03/16 00:13:02;;;;;;;15.02;13.52;;;;;;;;;;5046208;28;20697;-55
2024/03/16 00:15:28;;;;;;;12.15;7.10;;;;;;;;;;5064365;28;20123;-55
2024/03/16 00:17:54;;;;;;;12.00;7.10;;;;;;;;;;5065110;28;20103;-54
2024/03/16 00:20:21;;;;;;;11.82;6.97;;;;;;;;;;5065127;28;20090;-52
2024/03/16 00:22:47;;;;;;;11.35;6.68;;;;;;;;;;5047737;28;20600;-54
2024/03/16 00:25:14;;;;;;;11.75;7.20;;;;;;;;;;5067858;28;20082;-56
2024/03/16 00:27:40;;;;;;;11.25;6.60;;;;;;;;;;5067599;28;20025;-53
2024/03/16 00:30:06;;;;;;;12.18;7.13;;;;;;;;;;5067483;28;20581;-52
2024/03/16 00:32:32;;;;;;;11.40;6.70;;;;;;;;;;5063551;28;20035;-51
2024/03/16 00:34:59;;;;;;;11.30;6.68;;;;;;;;;;5069842;28;20038;-55
2024/03/16 00:37:25;;;;;;;11.82;6.95;;;;;;;;;;5087399;28;20028;-53
2024/03/16 00:39:51;;;;;;;11.02;6.47;;;;;;;;;;5069701;28;20139;-52
2024/03/16 00:42:17;;;;;;;10.85;6.40;;;;;;;;;;5087687;28;20032;-51
2024/03/16 00:44:43;;;;;;;11.10;6.55;;;;;;;;;;5087453;28;20039;-51
2024/03/16 00:47:09;;;;;;;36.08;18.50;;;;;;;;;;5096129;22;20661;-48
2024/03/16 00:49:36;;;;;;;10.63;6.30;;;;;;;;;;5067977;28;20487;-53
2024/03/16 00:52:02;;;;;;;10.35;6.10;;;;;;;;;;5068636;28;20099;-51
2024/03/16 00:54:28;;;;;;;10.52;6.20;;;;;;;;;;5050722;28;20363;-55
2024/03/16 00:56:54;;;;;;;11.82;7.60;;;;;;;;;;5069306;28;20174;-49
2024/03/16 00:59:22;;;;;;;10.55;6.28;;;;;;;;;;5069145;28;20089;-52
2024/03/16 01:01:48;;;;;;;10.23;6.00;;;;;;;;;;5069144;28;20100;-52
2024/03/16 01:04:14;;;;;;;10.40;6.10;;;;;;;;;;5069904;28;20059;-50
2024/03/16 01:06:40;;;;;;;11.35;6.47;;;;;;;;;;5072967;28;20398;-53
2024/03/16 01:09:06;;;;;;;10.70;6.30;;;;;;;;;;5073040;28;20101;-52
2024/03/16 01:11:32;;;;;;;10.10;6.00;;;;;;;;;;5072468;28;20388;-54
2024/03/16 01:13:58;;;;;;;10.50;6.20;;;;;;;;;;5072474;28;20020;-52
2024/03/16 01:16:25;;;;;;;10.50;6.10;;;;;;;;;;5072939;28;20089;-50
2024/03/16 01:18:51;;;;;;;10.38;6.15;;;;;;;;;;5072925;28;20078;-54
2024/03/16 01:21:19;;;;;;;11.20;6.57;;;;;;;;;;5072750;28;20024;-53
2024/03/16 01:23:44;;;;;;;13.40;7.10;;;;;;;;;;5072289;28;20033;-54
2024/03/16 01:26:10;;;;;;;11.65;6.70;;;;;;;;;;5072411;28;20031;-54
2024/03/16 01:28:36;;;;;;;10.43;6.10;;;;;;;;;;5072722;28;20141;-54
2024/03/16 01:31:02;;;;;;;10.57;6.25;;;;;;;;;;5072642;28;20016;-52
2024/03/16 01:33:28;;;;;;;11.68;6.85;;;;;;;;;;5071853;28;20500;-53
2024/03/16 01:35:54;;;;;;;10.70;6.30;;;;;;;;;;5072527;28;20070;-53
2024/03/16 01:38:21;;;;;;;12.88;7.72;;;;;;;;;;5054379;28;20552;-51
2024/03/16 01:40:47;;;;;;;11.75;7.13;;;;;;;;;;5072318;28;20393;-51
2024/03/16 01:43:13;;;;;;;11.32;6.60;;;;;;;;;;5071323;28;20035;-51
2024/03/16 01:45:40;;;;;;;11.00;6.50;;;;;;;;;;5054217;28;20112;-52
2024/03/16 01:48:09;;;;;;;11.95;6.97;;;;;;;;;;5072018;28;20043;-49
2024/03/16 01:50:36;;;;;;;11.20;6.60;;;;;;;;;;5054214;28;20025;-52
2024/03/16 01:53:02;;;;;;;10.80;6.32;;;;;;;;;;5071380;28;20351;-51
2024/03/16 01:55:28;;;;;;;10.52;6.22;;;;;;;;;;5072090;28;20031;-49
2024/03/16 01:57:54;;;;;;;10.70;6.30;;;;;;;;;;5072781;28;20063;-48
2024/03/16 02:00:20;;;;;;;11.20;6.70;;;;;;;;;;5073856;28;20033;-49
2024/03/16 02:02:46;;;;;;;12.93;7.20;;;;;;;;;;5071999;28;20025;-51
2024/03/16 02:05:12;;;;;;;11.10;6.50;;;;;;;;;;5071996;28;20376;-50
2024/03/16 02:07:38;;;;;;;11.43;6.70;;;;;;;;;;5071880;28;20037;-49
2024/03/16 02:10:05;;;;;;;36.50;10.65;;;;;;;;;;5071853;28;20509;-53
2024/03/16 02:12:31;;;;;;;12.07;7.28;;;;;;;;;;5071102;28;20116;-50
2024/03/16 02:14:57;;;;;;;12.70;8.45;;;;;;;;;;5071972;28;20052;-53
2024/03/16 02:17:23;;;;;;;10.80;6.35;;;;;;;;;;5070799;28;20108;-48
2024/03/16 02:19:49;;;;;;;11.68;7.20;;;;;;;;;;5071830;28;20031;-51
2024/03/16 02:22:15;;;;;;;14.40;6.60;;;;;;;;;;5071546;28;20024;-50
2024/03/16 02:24:42;;;;;;;11.18;6.53;;;;;;;;;;5053547;28;20027;-54
2024/03/16 02:27:08;;;;;;;10.70;6.30;;;;;;;;;;5071594;28;20036;-51
2024/03/16 02:29:36;;;;;;;11.00;6.43;;;;;;;;;;5054253;28;20108;-48
2024/03/16 02:32:05;;;;;;;11.30;6.60;;;;;;;;;;5071500;28;20045;-51
2024/03/16 02:34:31;;;;;;;11.57;6.80;;;;;;;;;;5053314;28;20016;-47
2024/03/16 02:36:57;;;;;;;11.18;6.57;;;;;;;;;;5071360;28;20475;-52
2024/03/16 02:39:23;;;;;;;12.52;7.65;;;;;;;;;;5071472;28;20020;-48
2024/03/16 02:41:49;;;;;;;11.20;6.80;;;;;;;;;;5071158;28;20035;-52
2024/03/16 02:44:15;;;;;;;10.85;6.40;;;;;;;;;;5071011;28;20025;-51
2024/03/16 02:46:41;;;;;;;11.20;6.60;;;;;;;;;;5070714;28;20579;-51
2024/03/16 02:49:07;;;;;;;10.77;6.35;;;;;;;;;;5071120;28;20051;-48
2024/03/16 02:51:33;;;;;;;12.38;7.45;;;;;;;;;;5070736;28;20056;-53
2024/03/16 02:54:00;;;;;;;11.30;6.60;;;;;;;;;;5070148;28;20021;-50
2024/03/16 02:56:26;;;;;;;14.32;7.95;;;;;;;;;;5070915;28;20024;-49
2024/03/16 02:58:52;;;;;;;12.50;7.82;;;;;;;;;;5052842;28;20078;-55
2024/03/16 03:01:19;;;;;;;11.05;6.50;;;;;;;;;;5070712;28;20039;-51
2024/03/16 03:03:45;;;;;;;11.25;6.60;;;;;;;;;;5070536;28;20033;-51
2024/03/16 03:06:12;;;;;;;11.38;6.90;;;;;;;;;;5070768;28;20555;-50
2024/03/16 03:08:38;;;;;;;24.67;7.97;;;;;;;;;;5070707;28;20017;-49
2024/03/16 03:11:04;;;;;;;10.57;6.20;;;;;;;;;;5070757;28;20552;-54
2024/03/16 03:13:30;;;;;;;10.95;6.50;;;;;;;;;;5070054;28;20021;-48
2024/03/16 03:15:56;;;;;;;12.15;7.45;;;;;;;;;;5052539;28;20028;-53
2024/03/16 03:18:26;;;;;;;10.80;6.40;;;;;;;;;;5070318;28;20047;-55
2024/03/16 03:21:00;;;;;;;10.43;6.10;;;;;;;;;;5070596;28;20020;-54
2024/03/16 03:23:28;;;;;;;11.10;6.50;;;;;;;;;;5069842;28;20089;-51
2024/03/16 03:25:54;;;;;;;12.63;6.50;;;;;;;;;;5070270;28;20453;-52
2024/03/16 03:28:20;;;;;;;11.10;6.60;;;;;;;;;;5070295;28;20401;-52
2024/03/16 03:30:48;;;;;;;10.65;6.35;;;;;;;;;;5070336;28;20017;-55
2024/03/16 03:33:14;;;;;;;11.55;6.85;;;;;;;;;;5069767;28;20020;-51
2024/03/16 03:35:40;;;;;;;11.40;6.70;;;;;;;;;;5070246;28;20055;-51
2024/03/16 03:38:07;;;;;;;11.52;6.72;;;;;;;;;;5070482;28;20032;-52
2024/03/16 03:40:33;;;;;;;11.20;6.57;;;;;;;;;;5052248;28;20043;-53
2024/03/16 03:43:04;;;;;;;13.52;7.45;;;;;;;;;;5069667;28;20471;-50
2024/03/16 03:48:25;;;;;;;;;;;;;;;;;;5052869;28;20048;-49
2024/03/16 03:50:55;;;;;;;12.07;6.50;;;;;;;;;;5071292;28;19915;-53
2024/03/16 03:53:21;;;;;;;10.35;6.07;;;;;;;;;;5069689;28;20020;-51
2024/03/16 03:55:47;;;;;;;11.50;7.05;;;;;;;;;;5070465;28;20052;-53
2024/03/16 03:58:14;;;;;;;11.65;6.90;;;;;;;;;;5070690;28;20029;-51
2024/03/16 04:00:40;;;;;;;11.52;6.82;;;;;;;;;;5070621;28;20382;-51
2024/03/16 04:03:06;;;;;;;31.75;9.63;;;;;;;;;;5052516;28;20027;-51
2024/03/16 04:05:33;;;;;;;10.63;6.30;;;;;;;;;;5070790;28;20023;-48
2024/03/16 04:07:59;;;;;;;10.75;6.35;;;;;;;;;;5070663;28;20024;-49
2024/03/16 04:10:25;;;;;;;10.80;6.43;;;;;;;;;;5071008;28;20414;-50
2024/03/16 04:12:51;;;;;;;11.30;6.60;;;;;;;;;;5069736;28;20025;-52
2024/03/16 04:15:17;;;;;;;11.10;6.50;;;;;;;;;;5069981;28;20381;-50
2024/03/16 04:17:43;;;;;;;14.35;7.82;;;;;;;;;;5069844;28;20037;-51
2024/03/16 04:20:12;;;;;;;11.68;6.82;;;;;;;;;;5070142;28;20103;-52
2024/03/16 04:22:39;;;;;;;12.15;7.68;;;;;;;;;;5069367;28;20398;-53
2024/03/16 04:25:09;;;;;;;11.27;6.60;;;;;;;;;;5069937;28;20033;-49
2024/03/16 04:27:35;;;;;;;14.88;7.65;;;;;;;;;;5069720;28;20035;-51
2024/03/16 04:30:01;;;;;;;16.42;9.38;;;;;;;;;;5069685;28;20394;-51
2024/03/16 04:32:27;;;;;;;11.90;7.22;;;;;;;;;;5069098;28;20028;-51
2024/03/16 04:34:53;;;;;;;12.93;7.82;;;;;;;;;;5069636;28;20024;-53
2024/03/16 04:37:20;;;;;;;13.15;8.43;;;;;;;;;;5051777;28;20025;-52
2024/03/16 04:39:46;;;;;;;12.50;7.32;;;;;;;;;;5071185;28;20479;-51
2024/03/16 04:42:12;;;;;;;12.73;7.85;;;;;;;;;;5073041;28;20470;-48
2024/03/16 04:44:38;;;;;;;12.18;7.10;;;;;;;;;;5072990;28;20048;-50
2024/03/16 04:47:05;;;;;;;12.15;7.20;;;;;;;;;;5055067;28;20470;-51
2024/03/16 04:49:31;;;;;;;13.10;7.97;;;;;;;;;;5073645;28;20397;-53
2024/03/16 04:51:57;;;;;;;12.80;8.40;;;;;;;;;;5073217;28;20062;-54
2024/03/16 04:54:23;;;;;;;14.07;8.40;;;;;;;;;;5054971;28;20031;-48
2024/03/16 04:56:49;;;;;;;15.68;10.27;;;;;;;;;;5055240;28;20547;-52
2024/03/16 04:59:15;;;;;;;13.80;8.43;;;;;;;;;;5073298;28;20028;-56
2024/03/16 05:01:41;;;;;;;13.50;8.48;;;;;;;;;;5073029;28;20032;-51
2024/03/16 05:04:07;;;;;;;13.63;8.88;;;;;;;;;;5054855;28;20024;-53
2024/03/16 05:06:34;;;;;;;13.57;8.73;;;;;;;;;;5072838;28;20021;-49
2024/03/16 05:09:05;;;;;;;21.45;11.52;;;;;;;;;;5073151;28;20081;-51
2024/03/16 05:11:31;;;;;;;14.60;11.18;;;;;;;;;;5055083;28;20114;-53
2024/03/16 05:14:01;;;;;;;17.60;12.13;;;;;;;;;;5054921;28;20032;-55
2024/03/16 05:16:27;;;;;;;15.45;12.32;;;;;;;;;;5073060;28;20116;-49
2024/03/16 05:18:53;;;;;;;17.05;15.35;;;;;;;;;;5073179;28;20111;-49
2024/03/16 05:21:19;;;;;;;18.15;16.38;;;;;;;;;;5072751;28;20055;-49
2024/03/16 05:23:45;;;;;;;23.60;21.60;;;;;;;;;;5072305;28;20094;-48
2024/03/16 05:26:14;;;;;;;23.48;21.52;;;;;;;;;;5072952;28;20067;-48
2024/03/16 05:28:40;;;;;;;25.50;23.30;;;;;;;;;;5072745;28;20426;-53
2024/03/16 05:31:10;;;;;;;23.35;21.45;;;;;;;;;;5072640;28;20039;-55
2024/03/16 05:33:36;;;;;;;27.42;25.13;;;;;;;;;;5072158;28;20031;-53
2024/03/16 05:36:02;;;;;;;24.77;22.77;;;;;;;;;;5072768;28;20077;-55
2024/03/16 05:38:28;;;;;;;24.80;22.77;;;;;;;;;;5072496;28;20021;-54
2024/03/16 05:40:56;;;;;;;23.27;21.38;;;;;;;;;;5072514;28;20162;-53
2024/03/16 05:43:22;;;;;;;25.10;22.92;;;;;;;;;;5053951;28;20115;-48
2024/03/16 05:45:52;;;;;;;24.40;22.40;;;;;;;;;;5054609;28;20115;-50
2024/03/16 05:48:18;;;;;;;26.55;24.35;;;;;;;;;;5072421;28;20107;-51
2024/03/16 05:50:45;;;;;;;24.48;22.48;;;;;;;;;;5071515;28;20530;-52
2024/03/16 05:53:11;;;;;;;24.70;22.70;;;;;;;;;;5072091;28;20017;-54
2024/03/16 05:55:38;;;;;;;25.30;23.20;;;;;;;;;;5054289;28;20029;-55
2024/03/16 05:58:05;;;;;;;26.73;24.63;;;;;;;;;;5072114;28;20028;-51
2024/03/16 06:00:30;;;;;;;28.13;25.60;;;;;;;;;;5072163;28;20074;-53
2024/03/16 06:02:57;;;;;;;27.40;25.17;;;;;;;;;;5053313;28;20024;-51
2024/03/16 06:05:22;;;;;;;28.10;25.83;;;;;;;;;;5053963;28;20021;-50
2024/03/16 06:07:48;;;;;;;27.83;25.63;;;;;;;;;;5071882;28;20067;-53
2024/03/16 06:10:14;;;;;;;28.13;26.00;;;;;;;;;;5071971;28;20498;-52
2024/03/16 06:12:40;;;;;;;27.73;25.40;;;;;;;;;;5071191;28;20048;-49
2024/03/16 06:15:07;;;;;;;26.98;24.88;;;;;;;;;;5071664;28;20393;-52
2024/03/16 06:17:36;;;;;;;25.13;23.13;;;;;;;;;;5071721;28;20024;-51
2024/03/16 06:20:04;;;;;;;25.38;23.27;;;;;;;;;;5053805;28;20029;-54
2024/03/16 06:22:31;;;;;;;25.17;23.17;;;;;;;;;;5071146;28;20107;-51
2024/03/16 06:24:57;;;;;;;23.73;21.50;;;;;;;;;;5071926;28;20052;-51
2024/03/16 06:27:25;;;;;;;21.35;19.45;;;;;;;;;;5071595;28;20024;-48
2024/03/16 06:29:55;;;;;;;20.55;18.75;;;;;;;;;;5071692;28;20028;-50
2024/03/16 06:32:22;;;;;;;20.60;18.80;;;;;;;;;;5070866;28;20040;-51
2024/03/16 06:34:48;;;;;;;20.38;18.58;;;;;;;;;;5071577;28;20508;-53
2024/03/16 06:37:15;;;;;;;20.13;18.33;;;;;;;;;;5071339;28;20561;-56
2024/03/16 06:39:41;;;;;;;19.40;17.60;;;;;;;;;;5071429;28;20044;-49
2024/03/16 06:42:08;;;;;;;22.13;20.23;;;;;;;;;;5070547;28;20502;-48
2024/03/16 06:44:34;;;;;;;22.17;20.27;;;;;;;;;;5070506;28;20020;-48
2024/03/16 06:47:00;;;;;;;22.70;20.60;;;;;;;;;;5069471;28;20399;-54
2024/03/16 06:49:26;;;;;;;20.65;18.85;;;;;;;;;;5069611;28;20378;-53
2024/03/16 06:51:52;;;;;;;19.38;17.58;;;;;;;;;;5070522;28;20012;-55
2024/03/16 06:54:18;;;;;;;18.25;16.45;;;;;;;;;;5070731;28;20025;-49
2024/03/16 06:56:44;;;;;;;16.52;14.82;;;;;;;;;;5058947;28;20100;-50
2024/03/16 06:59:10;;;;;;;16.85;15.13;;;;;;;;;;5032983;28;20150;-48
2024/03/16 07:01:36;;;;;;;15.80;14.00;;;;;;;;;;5050465;28;20025;-48
2024/03/16 07:04:02;;;;;;;15.02;12.98;;;;;;;;;;5051784;28;20025;-48
2024/03/16 07:06:28;;;;;;;15.00;12.95;;;;;;;;;;5070736;28;20047;-50
2024/03/16 07:08:56;;;;;;;15.25;12.88;;;;;;;;;;5070913;28;20702;-53
2024/03/16 07:11:22;;;;;;;14.80;12.20;;;;;;;;;;5070216;28;20136;-50
2024/03/16 07:13:48;;;;;;;14.70;12.05;;;;;;;;;;5070368;28;20544;-49
2024/03/16 07:16:14;;;;;;;14.70;12.10;;;;;;;;;;5052688;28;20055;-50
2024/03/16 07:18:44;;;;;;;14.90;12.70;;;;;;;;;;5052989;28;20438;-48
2024/03/16 07:21:10;;;;;;;15.30;12.70;;;;;;;;;;5070476;28;20468;-52
2024/03/16 07:23:36;;;;;;;15.00;12.60;;;;;;;;;;5070320;28;20029;-49
2024/03/16 07:26:02;;;;;;;15.00;12.90;;;;;;;;;;5052534;28;20024;-49
2024/03/16 07:28:29;;;;;;;14.85;12.50;;;;;;;;;;5070616;28;20097;-49
2024/03/16 07:30:57;;;;;;;14.93;12.88;;;;;;;;;;5070859;28;20070;-50
2024/03/16 07:33:23;;;;;;;14.70;11.90;;;;;;;;;;5070224;28;20020;-53
2024/03/16 07:35:50;;;;;;;14.80;12.20;;;;;;;;;;5070834;28;20020;-53
2024/03/16 07:38:16;;;;;;;14.70;12.07;;;;;;;;;;5070315;28;20032;-49
2024/03/16 07:40:43;;;;;;;16.30;12.50;;;;;;;;;;5070415;28;20035;-49
2024/03/16 07:43:09;;;;;;;14.52;11.38;;;;;;;;;;5070110;28;20043;-51
2024/03/16 07:45:39;;;;;;;14.40;11.00;;;;;;;;;;5070297;28;20031;-54
2024/03/16 07:48:06;;;;;;;14.30;10.63;;;;;;;;;;5070396;28;20028;-50
2024/03/16 07:50:32;;;;;;;14.85;11.25;;;;;;;;;;5070416;28;20478;-51
2024/03/16 07:52:58;;;;;;;14.35;10.93;;;;;;;;;;5069765;28;20016;-54
2024/03/16 07:55:24;;;;;;;14.50;10.20;;;;;;;;;;5070146;28;20027;-53
2024/03/16 07:57:50;;;;;;;14.50;10.38;;;;;;;;;;5069946;28;20025;-48
2024/03/16 08:00:16;;;;;;;14.00;9.77;;;;;;;;;;5070201;28;20024;-50
2024/03/16 08:02:42;;;;;;;15.80;10.80;;;;;;;;;;5051563;28;20123;-50
2024/03/16 08:05:11;;;;;;;13.93;9.75;;;;;;;;;;5070150;28;20032;-51
2024/03/16 08:07:39;;;;;;;14.50;10.00;;;;;;;;;;5069948;28;20033;-52
2024/03/16 08:10:05;;;;;;;14.03;10.10;;;;;;;;;;5070178;28;20120;-52
2024/03/16 08:12:31;;;;;;;20.63;13.75;;;;;;;;;;5069363;28;20262;-51
2024/03/16 08:14:57;;;;;;;14.65;11.70;;;;;;;;;;5072260;28;20054;-49
2024/03/16 08:17:23;;;;;;;14.70;11.90;;;;;;;;;;5074055;28;20544;-52
2024/03/16 08:19:50;;;;;;;14.75;12.25;;;;;;;;;;5074119;28;20028;-51
2024/03/16 08:22:16;;;;;;;15.07;13.15;;;;;;;;;;5055525;28;20024;-51
2024/03/16 08:24:42;;;;;;;14.68;11.98;;;;;;;;;;5073542;28;20039;-49
2024/03/16 08:27:08;;;;;;;14.80;12.30;;;;;;;;;;5073707;28;20032;-52
2024/03/16 08:29:35;;;;;;;15.20;12.30;;;;;;;;;;5073576;28;20095;-52
2024/03/16 08:32:01;;;;;;;14.90;12.40;;;;;;;;;;5073448;28;20029;-51
2024/03/16 08:34:27;;;;;;;14.70;12.07;;;;;;;;;;5073518;28;20027;-55
2024/03/16 08:36:53;;;;;;;23.25;13.32;;;;;;;;;;5073520;28;20024;-53
2024/03/16 08:39:19;;;;;;;16.38;12.88;;;;;;;;;;5073840;28;20064;-56
2024/03/16 08:41:45;;;;;;;14.95;12.50;;;;;;;;;;5073574;28;20032;-51
2024/03/16 08:44:11;;;;;;;14.70;11.90;;;;;;;;;;5073290;28;20020;-56
2024/03/16 08:46:37;;;;;;;14.60;11.80;;;;;;;;;;5073499;28;20036;-55
2024/03/16 08:49:03;;;;;;;14.63;11.63;;;;;;;;;;5073621;28;20052;-51
2024/03/16 08:51:29;;;;;;;14.50;11.27;;;;;;;;;;5073185;28;20021;-51
2024/03/16 08:53:55;;;;;;;14.50;11.00;;;;;;;;;;5073218;28;20385;-50
2024/03/16 08:56:24;;;;;;;16.48;11.10;;;;;;;;;;5073999;28;20092;-55
2024/03/16 08:58:50;;;;;;;14.50;11.18;;;;;;;;;;5073441;28;20112;-51
2024/03/16 09:01:16;;;;;;;14.40;11.10;;;;;;;;;;5073267;28;20064;-54
2024/03/16 09:03:44;;;;;;;14.10;10.20;;;;;;;;;;5072823;28;20445;-54
2024/03/16 09:06:10;;;;;;;14.02;9.93;;;;;;;;;;5073141;28;20527;-55
2024/03/16 09:08:37;;;;;;;13.98;9.80;;;;;;;;;;5072997;28;20032;-52
2024/03/16 09:11:03;;;;;;;14.20;10.32;;;;;;;;;;5073273;28;20048;-52
2024/03/16 09:13:29;;;;;;;13.90;9.65;;;;;;;;;;5072346;28;20024;-52
2024/03/16 09:15:56;;;;;;;14.40;10.75;;;;;;;;;;5073019;28;20032;-54
2024/03/16 09:18:22;;;;;;;14.00;9.85;;;;;;;;;;5072820;28;20111;-53
2024/03/16 09:20:48;;;;;;;13.90;9.55;;;;;;;;;;5072489;28;20107;-54
2024/03/16 09:23:14;;;;;;;13.68;9.00;;;;;;;;;;5070067;28;20024;-53
2024/03/16 09:25:40;;;;;;;14.02;9.40;;;;;;;;;;5071527;28;20436;-53
2024/03/16 09:28:07;;;;;;;13.90;9.35;;;;;;;;;;5072053;28;20016;-48
2024/03/16 09:30:33;;;;;;;13.77;9.10;;;;;;;;;;5072660;28;20013;-48
2024/03/16 09:33:00;;;;;;;13.88;9.32;;;;;;;;;;5071400;28;20186;-52
2024/03/16 09:35:26;;;;;;;13.95;9.50;;;;;;;;;;5072372;28;20574;-52
2024/03/16 09:37:52;;;;;;;14.05;9.90;;;;;;;;;;5072362;28;20031;-54
2024/03/16 09:40:18;;;;;;;14.75;10.63;;;;;;;;;;5072479;28;20140;-52
2024/03/16 09:42:44;;;;;;;13.93;9.52;;;;;;;;;;5071784;28;20044;-51
2024/03/16 09:45:17;;;;;;;13.95;9.63;;;;;;;;;;5072331;28;20032;-49
2024/03/16 09:47:45;;;;;;;13.68;8.98;;;;;;;;;;5072374;28;20033;-47
2024/03/16 09:50:13;;;;;;;13.70;8.90;;;;;;;;;;5071828;28;20100;-48
2024/03/16 09:52:42;;;;;;;14.10;9.73;;;;;;;;;;5071318;28;20020;-50
2024/03/16 09:55:09;;;;;;;13.68;8.90;;;;;;;;;;5072414;28;20052;-50
2024/03/16 09:57:38;;;;;;;14.43;9.00;;;;;;;;;;5072267;28;20250;-48
2024/03/16 10:00:06;;;;;;;17.30;9.38;;;;;;;;;;5072291;28;20108;-48
2024/03/16 10:02:32;;;;;;;;;;;;;;;;;;5072090;28;20299;-50
2024/03/16 10:04:58;;;;;;;13.55;8.60;;;;;;;;;;5071053;28;19999;-50
2024/03/16 10:07:25;;;;;;;13.50;8.35;;;;;;;;;;5070745;28;20273;-52
2024/03/16 10:09:55;;;;;;;13.50;8.50;;;;;;;;;;5072040;28;20032;-50
2024/03/16 10:12:22;;;;;;;14.95;8.55;;;;;;;;;;5071412;28;20107;-52
2024/03/16 10:15:21;;;;;;;13.15;7.63;;;;;;;;;;5072064;28;20197;-52
2024/03/16 10:17:50;;;;;;;13.65;8.23;;;;;;;;;;5071032;28;20032;-46
2024/03/16 10:20:16;;;;;;;13.27;7.85;;;;;;;;;;5071666;28;20025;-49
2024/03/16 10:22:54;;;;;;;13.38;8.13;;;;;;;;;;5069518;28;20032;-52
2024/03/16 10:25:22;;;;;;;13.75;8.70;;;;;;;;;;5071621;28;20101;-49
2024/03/16 10:27:48;;;;;;;13.47;8.23;;;;;;;;;;5071465;28;20086;-46
2024/03/16 10:30:17;;;;;;;13.15;7.75;;;;;;;;;;5071287;28;20499;-51
2024/03/16 10:32:45;;;;;;;14.13;9.43;;;;;;;;;;5070392;28;20024;-50
2024/03/16 10:35:15;;;;;;;14.05;9.30;;;;;;;;;;5071156;28;20024;-49
2024/03/16 10:37:45;;;;;;;13.35;7.93;;;;;;;;;;5070904;28;20028;-51
2024/03/16 10:40:16;;;;;;;14.48;8.55;;;;;;;;;;5075178;28;20044;-52
2024/03/16 10:42:43;;;;;;;13.43;8.15;;;;;;;;;;5072378;28;20024;-53
2024/03/16 10:45:16;;;;;;;13.63;8.90;;;;;;;;;;5071238;28;20025;-48
2024/03/16 10:47:47;;;;;;;13.90;9.23;;;;;;;;;;5071001;28;20056;-51
2024/03/16 10:50:13;;;;;;;13.50;8.50;;;;;;;;;;5070796;28;20053;-51
2024/03/16 10:52:41;;;;;;;13.52;8.63;;;;;;;;;;5069877;28;20097;-53
2024/03/16 10:55:15;;;;;;;14.68;9.13;;;;;;;;;;5070796;28;20024;-47
2024/03/16 10:57:41;;;;;;;13.70;8.80;;;;;;;;;;5070561;28;20028;-50
2024/03/16 11:00:20;;;;;;;13.50;8.30;;;;;;;;;;5070890;28;20541;-50
2024/03/16 11:03:42;;;;;;;13.45;8.27;;;;;;;;;;5070596;28;20071;-52
2024/03/16 11:05:47;;;;;;;13.52;8.48;;;;;;;;;;5059851;28;20494;-51
2024/03/16 11:08:13;;;;;;;13.68;8.65;;;;;;;;;;5070522;28;20071;-52
2024/03/16 11:10:40;;;;;;;14.32;9.48;;;;;;;;;;5070519;28;20020;-48
2024/03/16 11:13:18;;;;;;;13.52;8.30;;;;;;;;;;5070233;28;20037;-48
2024/03/16 11:15:44;;;;;;;13.50;8.30;;;;;;;;;;5071230;28;20016;-50
2024/03/16 11:18:16;;;;;;;13.60;8.60;;;;;;;;;;5070686;28;20043;-48
2024/03/16 11:20:53;;;;;;;13.65;8.50;;;;;;;;;;5071103;28;20024;-52
2024/03/16 11:23:23;;;;;;;14.23;8.52;;;;;;;;;;5068972;28;20024;-50
2024/03/16 11:25:49;;;;;;;13.18;7.80;;;;;;;;;;5071099;28;20025;-53
2024/03/16 11:28:17;;;;;;;13.70;8.63;;;;;;;;;;5070970;28;20031;-52
2024/03/16 11:30:43;;;;;;;14.43;8.00;;;;;;;;;;5070291;28;20021;-51
2024/03/16 11:33:19;;;;;;;13.40;8.10;;;;;;;;;;5070029;28;20111;-52
2024/03/16 11:35:45;;;;;;;13.02;7.60;;;;;;;;;;5070373;28;20070;-48
2024/03/16 11:38:11;;;;;;;12.90;7.50;;;;;;;;;;5070296;28;20371;-50
2024/03/16 11:40:41;;;;;;;13.50;7.70;;;;;;;;;;5068862;28;20691;-50
2024/03/16 11:43:11;;;;;;;12.80;7.40;;;;;;;;;;5069307;28;20021;-50
2024/03/16 11:45:39;;;;;;;12.93;7.55;;;;;;;;;;5069664;28;20387;-52
2024/03/16 11:48:05;;;;;;;12.77;7.50;;;;;;;;;;5069843;28;20031;-53
2024/03/16 11:50:32;;;;;;;12.98;7.53;;;;;;;;;;5070182;28;20023;-52
2024/03/16 11:52:59;;;;;;;13.25;7.93;;;;;;;;;;5069564;28;20025;-51
2024/03/16 11:55:29;;;;;;;13.40;8.18;;;;;;;;;;5068886;28;20502;-55
2024/03/16 11:57:57;;;;;;;13.00;7.40;;;;;;;;;;5070035;28;20028;-51
2024/03/16 12:00:23;;;;;;;12.90;7.53;;;;;;;;;;5069544;28;20029;-53
2024/03/16 12:02:51;;;;;;;12.98;7.65;;;;;;;;;;5068674;28;20051;-55
2024/03/16 12:05:17;;;;;;;13.30;7.90;;;;;;;;;;5069674;28;20032;-52
2024/03/16 12:07:48;;;;;;;13.60;8.23;;;;;;;;;;5069830;28;20024;-52
2024/03/16 12:10:14;;;;;;;14.18;8.38;;;;;;;;;;5066022;28;20119;-56
2024/03/16 12:12:41;;;;;;;13.30;7.85;;;;;;;;;;5057704;28;20674;-50
2024/03/16 12:15:14;;;;;;;13.40;8.18;;;;;;;;;;5069903;28;20031;-51
2024/03/16 12:17:48;;;;;;;11.93;7.00;;;;;;;;;;5069635;28;20017;-53
2024/03/16 12:20:19;;;;;;;12.30;7.20;;;;;;;;;;5052213;28;20405;-50
2024/03/16 12:22:48;;;;;;;12.88;7.70;;;;;;;;;;5069477;28;20578;-52
2024/03/16 12:25:14;;;;;;;12.88;7.53;;;;;;;;;;5069760;28;20094;-52
2024/03/16 12:27:44;;;;;;;14.15;8.00;;;;;;;;;;5069579;28;20052;-54
2024/03/16 12:30:11;;;;;;;13.77;8.68;;;;;;;;;;5062364;28;20021;-53
2024/03/16 12:32:37;;;;;;;13.20;7.75;;;;;;;;;;5049299;28;20675;-54
2024/03/16 12:35:04;;;;;;;12.88;7.50;;;;;;;;;;5049648;28;20029;-49
2024/03/16 12:37:30;;;;;;;17.77;7.75;;;;;;;;;;5049642;28;20078;-52
2024/03/16 12:39:57;;;;;;;12.90;7.50;;;;;;;;;;5049817;28;20497;-51
2024/03/16 12:42:24;;;;;;;12.97;7.57;;;;;;;;;;5048939;28;20026;-50
2024/03/16 12:44:50;;;;;;;12.60;7.30;;;;;;;;;;5049750;28;20025;-57
2024/03/16 12:47:16;;;;;;;12.95;7.55;;;;;;;;;;5047907;22;20029;-47
2024/03/16 12:49:44;;;;;;;13.23;7.80;;;;;;;;;;5031158;28;20025;-54
2024/03/16 12:52:13;;;;;;;13.77;8.20;;;;;;;;;;5047959;28;20048;-47
2024/03/16 12:54:39;;;;;;;13.23;7.75;;;;;;;;;;5031392;28;20061;-48
2024/03/16 12:57:07;;;;;;;14.45;8.40;;;;;;;;;;5049159;28;20065;-54
2024/03/16 12:59:36;;;;;;;13.07;7.47;;;;;;;;;;5050480;28;20036;-53
2024/03/16 13:02:02;;;;;;;12.77;7.47;;;;;;;;;;5052459;28;20502;-50
2024/03/16 13:04:29;;;;;;;13.93;8.25;;;;;;;;;;5051944;28;20029;-54
2024/03/16 13:06:55;;;;;;;13.10;7.63;;;;;;;;;;5052748;28;20039;-51
2024/03/16 13:09:25;;;;;;;13.30;7.90;;;;;;;;;;5035211;28;20490;-52
2024/03/16 13:11:51;;;;;;;13.07;7.68;;;;;;;;;;5052649;28;20544;-51
2024/03/16 13:14:17;;;;;;;13.27;7.97;;;;;;;;;;5034676;28;20025;-51
2024/03/16 13:16:43;;;;;;;18.48;8.73;;;;;;;;;;5052393;28;20090;-50
2024/03/16 13:19:12;;;;;;;15.55;9.45;;;;;;;;;;5052289;28;20029;-53
2024/03/16 13:21:39;;;;;;;13.27;8.15;;;;;;;;;;5052193;28;20024;-51
2024/03/16 13:24:06;;;;;;;13.40;8.10;;;;;;;;;;5034117;28;20025;-52
2024/03/16 13:26:32;;;;;;;14.38;8.60;;;;;;;;;;5052382;28;20056;-48
2024/03/16 13:28:59;;;;;;;13.55;8.60;;;;;;;;;;5034445;28;20036;-48
2024/03/16 13:31:28;;;;;;;13.52;8.55;;;;;;;;;;5052145;28;20078;-51
2024/03/16 13:33:54;;;;;;;13.45;8.20;;;;;;;;;;5051506;28;20056;-50
2024/03/16 13:36:20;;;;;;;14.43;9.15;;;;;;;;;;5052489;28;20029;-53
2024/03/16 13:38:46;;;;;;;13.32;7.90;;;;;;;;;;5034213;28;20043;-49
2024/03/16 13:41:12;;;;;;;13.57;8.40;;;;;;;;;;5051739;28;20029;-49
2024/03/16 13:43:42;;;;;;;13.55;8.52;;;;;;;;;;5051313;28;20039;-48
2024/03/16 13:46:18;;;;;;;13.50;8.48;;;;;;;;;;5034067;28;20033;-53
2024/03/16 13:48:44;;;;;;;13.70;8.90;;;;;;;;;;5051871;28;20039;-50
2024/03/16 13:51:10;;;;;;;13.60;8.63;;;;;;;;;;5051884;28;20100;-50
2024/03/16 13:53:36;;;;;;;14.10;9.02;;;;;;;;;;4695056;28;9999718;-52
2024/03/16 13:56:03;;;;;;;13.50;8.50;;;;;;;;;;5040185;28;20036;-47
2024/03/16 13:58:30;;;;;;;13.50;8.20;;;;;;;;;;5046815;28;20676;-48
2024/03/16 14:00:56;;;;;;;13.80;8.95;;;;;;;;;;5051557;28;20457;-53
2024/03/16 14:03:22;;;;;;;14.13;8.23;;;;;;;;;;5035996;28;20033;-53
2024/03/16 14:05:48;;;;;;;13.57;8.50;;;;;;;;;;5014014;28;20052;-51
2024/03/16 14:08:14;;;;;;;13.50;8.30;;;;;;;;;;5031847;28;20017;-51
2024/03/16 14:10:40;;;;;;;13.38;8.23;;;;;;;;;;5018600;28;20071;-53
2024/03/16 14:13:06;;;;;;;13.60;8.70;;;;;;;;;;5031826;28;20546;-54
2024/03/16 14:15:32;;;;;;;14.30;9.63;;;;;;;;;;5051268;28;20129;-53
2024/03/16 14:17:58;;;;;;;13.57;8.57;;;;;;;;;;5051080;28;20021;-57
2024/03/16 14:20:30;;;;;;;13.55;8.50;;;;;;;;;;5051418;28;20028;-54
2024/03/16 14:22:57;;;;;;;13.52;8.70;;;;;;;;;;5032701;28;20025;-51
2024/03/16 14:25:25;;;;;;;14.65;10.05;;;;;;;;;;5033498;28;20111;-55
2024/03/16 14:27:53;;;;;;;13.70;8.70;;;;;;;;;;5045032;28;20029;-50